Time;durP1;ratioP1;P1;durP2;ratioP2;P2;SDS_P1;SDS_P2;PMS_P1;PMS_P2;Temp;Humidity;BMP_temperature;BMP_pressure;BME280_temperature;BME280_humidity;BME280_pressure;Samples;Min_cycle;Max_cycle;Signal;HPM_P1;HPM_P2
2022/11/13 00:00:55;;;;;;;12.05;6.90;;;8.00;99.90;;;;;;4996084;28;20399;-60
2022/11/13 00:03:20;;;;;;;13.50;7.38;;;8.00;99.90;;;;;;4994848;28;20072;-61
2022/11/13 00:05:46;;;;;;;11.82;6.43;;;8.00;99.90;;;;;;5003629;28;20042;-59
2022/11/13 00:08:11;;;;;;;12.63;6.80;;;8.00;99.90;;;;;;4994827;28;20045;-59
2022/11/13 00:10:37;;;;;;;11.63;7.28;;;8.00;99.90;;;;;;4995103;28;20038;-61
2022/11/13 00:13:03;;;;;;;16.48;7.82;;;8.00;99.90;;;;;;4996627;28;20062;-60
2022/11/13 00:15:28;;;;;;;20.23;8.23;;;8.00;99.90;;;;;;4991788;28;20488;-60
2022/11/13 00:17:54;;;;;;;14.77;8.30;;;8.10;99.90;;;;;;4991742;28;20030;-59
2022/11/13 00:20:19;;;;;;;14.23;7.72;;;8.10;99.90;;;;;;4989483;28;20026;-55
2022/11/13 00:22:45;;;;;;;17.42;8.82;;;8.10;99.90;;;;;;4999546;28;20045;-61
2022/11/13 00:25:11;;;;;;;16.13;7.38;;;8.10;99.90;;;;;;4992248;28;20037;-61
2022/11/13 00:27:36;;;;;;;13.30;7.53;;;8.00;99.90;;;;;;4990944;28;20034;-60
2022/11/13 00:30:03;;;;;;;13.80;7.22;;;7.90;99.90;;;;;;4989880;28;20597;-61
2022/11/13 00:32:28;;;;;;;13.18;7.32;;;7.90;99.90;;;;;;4989150;28;20060;-60
2022/11/13 00:34:54;;;;;;;11.10;6.47;;;7.80;99.90;;;;;;4990663;28;20113;-61
2022/11/13 00:37:19;;;;;;;15.77;7.22;;;7.80;99.90;;;;;;4996082;28;20088;-61
2022/11/13 00:39:45;;;;;;;15.77;6.45;;;7.80;99.90;;;;;;4990389;28;20038;-61
2022/11/13 00:42:11;;;;;;;10.57;7.03;;;7.80;99.90;;;;;;4986351;28;20062;-61
2022/11/13 00:44:36;;;;;;;13.18;6.88;;;7.90;99.90;;;;;;4990536;28;20443;-62
2022/11/13 00:47:02;;;;;;;13.05;7.57;;;7.90;99.90;;;;;;5000371;28;20029;-61
2022/11/13 00:49:27;;;;;;;11.65;6.57;;;7.80;99.90;;;;;;4999898;28;20030;-61
2022/11/13 00:51:53;;;;;;;11.55;7.05;;;7.80;99.90;;;;;;4990401;28;20113;-61
2022/11/13 00:54:18;;;;;;;11.93;6.97;;;7.70;99.90;;;;;;4985804;28;20080;-59
2022/11/13 00:56:44;;;;;;;10.00;6.82;;;7.60;99.90;;;;;;4994718;28;20034;-60
2022/11/13 00:59:09;;;;;;;12.57;7.30;;;7.40;99.90;;;;;;4995723;28;20034;-57
2022/11/13 01:01:35;;;;;;;12.38;6.55;;;7.40;99.90;;;;;;4990151;28;20480;-60
2022/11/13 01:04:01;;;;;;;14.98;7.32;;;7.40;99.90;;;;;;4988114;28;20041;-60
2022/11/13 01:06:27;;;;;;;13.15;8.00;;;7.30;99.90;;;;;;4994325;28;20100;-60
2022/11/13 01:08:54;;;;;;;17.77;8.05;;;7.20;99.90;;;;;;4990226;28;20029;-60
2022/11/13 01:11:24;;;;;;;14.65;7.60;;;7.10;99.90;;;;;;4998124;28;20112;-60
2022/11/13 01:13:50;;;;;;;14.43;7.30;;;7.00;99.90;;;;;;4993598;28;20480;-58
2022/11/13 01:16:18;;;;;;;14.70;7.60;;;7.00;99.90;;;;;;4991097;28;20052;-60
2022/11/13 01:18:43;;;;;;;14.40;7.20;;;6.90;99.90;;;;;;4991704;28;20025;-60
2022/11/13 01:21:18;;;;;;;13.57;7.57;;;6.90;99.90;;;;;;4984488;28;20443;-61
2022/11/13 01:23:44;;;;;;;13.65;7.15;;;6.90;99.90;;;;;;4992363;28;20032;-61
2022/11/13 01:26:15;;;;;;;12.52;7.68;;;6.90;99.90;;;;;;4992408;28;20552;-59
2022/11/13 01:28:41;;;;;;;15.65;7.68;;;6.80;99.90;;;;;;4999355;28;20026;-61
2022/11/13 01:31:10;;;;;;;10.10;6.75;;;6.60;99.90;;;;;;4992876;28;20030;-57
2022/11/13 01:33:35;;;;;;;16.60;7.78;;;6.60;99.90;;;;;;4993300;28;20026;-61
2022/11/13 01:36:07;;;;;;;14.02;7.60;;;6.70;99.90;;;;;;4993072;28;20391;-61
2022/11/13 01:38:33;;;;;;;18.73;8.73;;;6.60;99.90;;;;;;4997378;28;20481;-60
2022/11/13 01:40:58;;;;;;;15.13;9.52;;;6.60;99.90;;;;;;4995887;28;20177;-61
2022/11/13 01:43:30;;;;;;;13.75;8.00;;;6.60;99.90;;;;;;4996205;28;20382;-59
2022/11/13 01:45:58;;;;;;;13.15;7.72;;;6.60;99.90;;;;;;4999369;28;20130;-61
2022/11/13 01:48:32;;;;;;;14.32;8.73;;;6.60;99.90;;;;;;4996899;28;20031;-58
2022/11/13 01:50:58;;;;;;;14.23;7.72;;;6.60;99.90;;;;;;4998437;28;21070;-60
2022/11/13 01:53:25;;;;;;;14.57;9.07;;;6.70;99.90;;;;;;4990799;28;20052;-60
2022/11/13 01:55:51;;;;;;;12.80;7.50;;;6.70;99.90;;;;;;4993488;28;20076;-61
2022/11/13 01:58:17;;;;;;;14.98;7.35;;;6.80;99.90;;;;;;4990783;28;20023;-60
2022/11/13 02:00:42;;;;;;;21.58;9.68;;;6.70;99.90;;;;;;4993070;28;20492;-59
2022/11/13 02:03:08;;;;;;;16.38;7.57;;;6.50;99.90;;;;;;4992471;28;20053;-61
2022/11/13 02:05:33;;;;;;;11.57;7.35;;;6.30;99.90;;;;;;4992856;28;20030;-60
2022/11/13 02:07:59;;;;;;;14.20;7.88;;;6.30;99.90;;;;;;4996658;28;20034;-61
2022/11/13 02:10:25;;;;;;;13.48;7.53;;;6.20;99.90;;;;;;4998403;28;20030;-61
2022/11/13 02:12:51;;;;;;;14.07;8.32;;;6.20;99.90;;;;;;5002370;28;20088;-57
2022/11/13 02:15:20;;;;;;;16.10;8.55;;;6.30;99.90;;;;;;4996087;28;20031;-59
2022/11/13 02:17:53;;;;;;;14.05;8.73;;;6.40;99.90;;;;;;4986291;28;20033;-59
2022/11/13 02:20:34;;;;;;;14.77;8.30;;;6.50;99.90;;;;;;4983499;28;20109;-59
2022/11/13 02:23:36;;;;;;;15.60;8.48;;;6.50;99.90;;;;;;4997983;28;20451;-60
2022/11/13 02:26:03;;;;;;;12.82;7.63;;;6.50;99.90;;;;;;4949864;28;20057;-60
2022/11/13 02:28:29;;;;;;;15.73;8.48;;;6.50;99.90;;;;;;4993645;28;20033;-60
2022/11/13 02:30:54;;;;;;;14.35;8.13;;;6.60;99.90;;;;;;4986477;28;20026;-60
2022/11/13 02:33:29;;;;;;;13.88;7.68;;;6.60;99.90;;;;;;4990882;28;20594;-60
2022/11/13 02:35:54;;;;;;;15.88;8.02;;;6.60;99.90;;;;;;4991859;28;20034;-60
2022/11/13 02:38:20;;;;;;;14.00;8.00;;;6.70;99.90;;;;;;4995407;28;20444;-61
2022/11/13 02:40:46;;;;;;;13.55;7.65;;;6.70;99.90;;;;;;4997239;28;20022;-61
2022/11/13 02:43:11;;;;;;;14.10;7.75;;;6.70;99.90;;;;;;4990818;28;20044;-61
2022/11/13 02:45:37;;;;;;;14.82;7.43;;;6.70;99.90;;;;;;4993362;28;20026;-59
2022/11/13 02:48:04;;;;;;;16.50;8.27;;;6.70;99.90;;;;;;4994641;28;20022;-59
2022/11/13 02:50:31;;;;;;;14.77;8.55;;;6.70;99.90;;;;;;4997622;28;20036;-55
2022/11/13 02:52:56;;;;;;;17.55;8.75;;;6.80;99.90;;;;;;4991532;28;20030;-59
2022/11/13 02:55:23;;;;;;;12.65;7.60;;;6.70;99.90;;;;;;4988414;28;20400;-61
2022/11/13 02:57:48;;;;;;;15.60;8.45;;;6.70;99.90;;;;;;4992456;28;20092;-60
2022/11/13 03:00:14;;;;;;;17.80;8.90;;;6.70;99.90;;;;;;4998597;28;20026;-58
2022/11/13 03:02:40;;;;;;;13.02;7.80;;;6.60;99.90;;;;;;4994597;28;20038;-57
2022/11/13 03:05:06;;;;;;;16.70;8.02;;;6.60;99.90;;;;;;5004455;28;20034;-60
2022/11/13 03:07:31;;;;;;;18.35;9.02;;;6.60;99.90;;;;;;4994057;28;20113;-60
2022/11/13 03:09:57;;;;;;;15.55;7.75;;;6.60;99.90;;;;;;5004282;28;20036;-60
2022/11/13 03:12:22;;;;;;;13.40;8.02;;;6.60;99.90;;;;;;4994994;28;20034;-60
2022/11/13 03:14:48;;;;;;;13.30;7.97;;;6.60;99.90;;;;;;4997974;28;20032;-58
2022/11/13 03:17:13;;;;;;;15.27;8.05;;;6.70;99.90;;;;;;4992496;28;20027;-61
2022/11/13 03:19:39;;;;;;;13.27;7.55;;;6.70;99.90;;;;;;4989835;28;20033;-57
2022/11/13 03:22:04;;;;;;;14.65;7.97;;;6.60;99.90;;;;;;4994294;28;20030;-60
2022/11/13 03:24:30;;;;;;;18.48;8.25;;;6.60;99.90;;;;;;4997595;28;20798;-59
2022/11/13 03:26:55;;;;;;;13.98;8.13;;;6.60;99.90;;;;;;4993645;28;20520;-60
2022/11/13 03:29:21;;;;;;;13.07;7.93;;;6.60;99.90;;;;;;5001140;28;20038;-61
2022/11/13 03:31:46;;;;;;;17.80;9.13;;;6.60;99.90;;;;;;5004926;28;20108;-61
2022/11/13 03:34:12;;;;;;;16.10;8.38;;;6.60;99.90;;;;;;4992947;28;20082;-61
2022/11/13 03:36:37;;;;;;;14.98;7.38;;;6.60;99.90;;;;;;4992898;28;20026;-60
2022/11/13 03:39:03;;;;;;;13.73;7.78;;;6.50;99.90;;;;;;4999948;28;20035;-61
2022/11/13 03:41:29;;;;;;;16.50;8.05;;;6.50;99.90;;;;;;5001434;28;20407;-58
2022/11/13 03:43:54;;;;;;;14.65;7.68;;;6.40;99.90;;;;;;4996071;28;20033;-60
2022/11/13 03:46:20;;;;;;;13.52;7.28;;;6.40;99.90;;;;;;4992408;28;20038;-60
2022/11/13 03:48:45;;;;;;;17.88;8.18;;;6.40;99.90;;;;;;4999057;28;20034;-60
2022/11/13 03:51:11;;;;;;;11.60;6.97;;;6.40;99.90;;;;;;5004854;28;20037;-58
2022/11/13 03:53:36;;;;;;;12.35;7.07;;;6.30;99.90;;;;;;4997097;28;20040;-60
2022/11/13 03:56:02;;;;;;;14.18;7.18;;;6.40;99.90;;;;;;4995722;28;20054;-57
2022/11/13 03:58:28;;;;;;;15.82;7.75;;;6.40;99.90;;;;;;4992555;28;20037;-59
2022/11/13 04:00:54;;;;;;;14.27;7.97;;;6.30;99.90;;;;;;4999106;28;20436;-58
2022/11/13 04:03:20;;;;;;;12.95;7.45;;;6.30;99.90;;;;;;4997608;28;20514;-59
2022/11/13 04:05:47;;;;;;;16.35;7.32;;;6.30;99.90;;;;;;4997602;28;20033;-60
2022/11/13 04:08:13;;;;;;;14.05;8.38;;;6.30;99.90;;;;;;4993594;28;20034;-60
2022/11/13 04:10:39;;;;;;;13.55;7.70;;;6.20;99.90;;;;;;5001030;28;20080;-60
2022/11/13 04:13:04;;;;;;;16.75;8.40;;;6.20;99.90;;;;;;4992942;28;20045;-58
2022/11/13 04:15:30;;;;;;;15.18;7.78;;;6.20;99.90;;;;;;4990283;28;20033;-56
2022/11/13 04:17:55;;;;;;;13.95;7.68;;;6.20;99.90;;;;;;4997121;28;20097;-61
2022/11/13 04:20:21;;;;;;;16.15;8.20;;;6.00;99.90;;;;;;5004615;28;20650;-60
2022/11/13 04:22:46;;;;;;;13.90;7.50;;;5.90;99.90;;;;;;4992453;28;20558;-58
2022/11/13 04:25:12;;;;;;;10.88;7.05;;;5.80;99.90;;;;;;4989998;28;20049;-61
2022/11/13 04:27:37;;;;;;;13.73;7.57;;;5.80;99.90;;;;;;4996827;28;20080;-60
2022/11/13 04:30:04;;;;;;;16.05;7.65;;;5.80;99.90;;;;;;4999389;28;20037;-59
2022/11/13 04:32:30;;;;;;;13.60;7.68;;;5.80;99.90;;;;;;4997634;28;20041;-59
2022/11/13 04:34:56;;;;;;;15.63;8.07;;;5.80;99.90;;;;;;4998711;28;20019;-59
2022/11/13 04:37:21;;;;;;;15.63;8.20;;;5.80;99.90;;;;;;4994848;28;20073;-60
2022/11/13 04:39:47;;;;;;;16.45;8.25;;;5.80;99.90;;;;;;4997494;28;20621;-61
2022/11/13 04:44:56;;;;;;;13.82;7.45;;;5.70;99.90;;;;;;4995303;28;20463;-59
2022/11/13 04:47:22;;;;;;;16.20;7.93;;;5.70;99.90;;;;;;4989245;28;20058;-60
2022/11/13 04:49:47;;;;;;;13.88;7.80;;;5.70;99.90;;;;;;5002019;28;20044;-56
2022/11/13 04:54:41;;;;;;;16.50;7.70;;;5.70;99.90;;;;;;4971108;28;19922;-59
2022/11/13 04:57:06;;;;;;;16.38;7.60;;;5.70;99.90;;;;;;4977367;28;20030;-58
2022/11/13 04:59:32;;;;;;;12.45;7.18;;;5.70;99.90;;;;;;4978487;28;20054;-58
2022/11/13 05:01:57;;;;;;;16.42;8.07;;;5.70;99.90;;;;;;4976385;28;20061;-61
2022/11/13 05:04:23;;;;;;;14.38;6.97;;;5.70;99.90;;;;;;4969153;28;20054;-59
2022/11/13 05:06:48;;;;;;;13.45;7.35;;;5.70;99.90;;;;;;4972221;28;20050;-59
2022/11/13 05:09:14;;;;;;;15.20;7.25;;;5.70;99.90;;;;;;4970392;28;20031;-59
2022/11/13 05:11:40;;;;;;;15.63;7.00;;;5.70;99.90;;;;;;4967247;28;20042;-61
2022/11/13 05:14:05;;;;;;;12.30;7.25;;;5.80;99.90;;;;;;4963191;28;20043;-60
2022/11/13 05:16:33;;;;;;;14.48;8.30;;;5.80;99.90;;;;;;4968784;28;20385;-59
2022/11/13 05:18:59;;;;;;;13.48;8.40;;;5.90;99.90;;;;;;4968103;28;20034;-61
2022/11/13 05:21:25;;;;;;;13.02;7.53;;;5.90;99.90;;;;;;4968290;28;20039;-60
2022/11/13 05:23:50;;;;;;;14.05;6.95;;;5.90;99.90;;;;;;4972706;28;20034;-60
2022/11/13 05:26:17;;;;;;;14.70;6.95;;;5.90;99.90;;;;;;4973425;28;20204;-59
2022/11/13 05:28:42;;;;;;;11.88;7.13;;;5.90;99.90;;;;;;4968750;28;20023;-61
2022/11/13 05:31:14;;;;;;;15.32;7.50;;;5.90;99.90;;;;;;4966777;28;20081;-60
2022/11/13 05:33:41;;;;;;;14.20;7.70;;;5.90;99.90;;;;;;4967685;28;20034;-60
2022/11/13 05:36:09;;;;;;;12.52;6.88;;;5.80;99.90;;;;;;4968050;28;20059;-59
2022/11/13 05:38:35;;;;;;;15.57;7.47;;;5.70;99.90;;;;;;4969414;28;20027;-59
2022/11/13 05:41:23;;;;;;;12.10;7.30;;;5.70;99.90;;;;;;4978183;28;20086;-59
2022/11/13 05:43:49;;;;;;;16.15;6.85;;;5.70;99.90;;;;;;4960093;28;20106;-59
2022/11/13 05:46:26;;;;;;;15.20;6.63;;;5.70;99.90;;;;;;4968487;28;20101;-60
2022/11/13 05:48:54;;;;;;;14.10;6.50;;;5.70;99.90;;;;;;4969200;28;20460;-58
2022/11/13 05:51:23;;;;;;;12.02;6.45;;;5.70;99.90;;;;;;4976284;28;20868;-59
2022/11/13 05:53:49;;;;;;;12.00;7.13;;;5.70;99.90;;;;;;4968102;28;20459;-60
2022/11/13 05:56:23;;;;;;;12.07;6.90;;;5.80;99.90;;;;;;4969393;28;20034;-59
2022/11/13 05:58:50;;;;;;;15.60;7.13;;;5.80;99.90;;;;;;4967068;28;20031;-61
2022/11/13 06:01:22;;;;;;;11.75;5.80;;;5.80;99.90;;;;;;4970496;28;20031;-60
2022/11/13 06:03:49;;;;;;;15.18;7.07;;;5.80;99.90;;;;;;4973224;28;20029;-61
2022/11/13 06:06:17;;;;;;;12.63;7.10;;;5.80;99.90;;;;;;4977738;28;20077;-59
2022/11/13 06:08:44;;;;;;;11.60;6.82;;;5.70;99.90;;;;;;4967337;28;20968;-60
2022/11/13 06:11:16;;;;;;;12.13;6.80;;;5.70;99.90;;;;;;4976440;28;20457;-60
2022/11/13 06:13:42;;;;;;;11.20;6.20;;;5.60;99.90;;;;;;4968233;28;20034;-60
2022/11/13 06:16:20;;;;;;;13.23;7.00;;;5.60;99.90;;;;;;4967653;28;20042;-60
2022/11/13 06:18:47;;;;;;;14.40;6.80;;;5.60;99.90;;;;;;4963462;28;20035;-58
2022/11/13 06:21:19;;;;;;;10.85;6.10;;;5.50;99.90;;;;;;4968978;28;20029;-60
2022/11/13 06:23:45;;;;;;;14.57;6.80;;;5.40;99.90;;;;;;4972130;28;20034;-60
2022/11/13 06:26:14;;;;;;;15.68;6.80;;;5.20;99.90;;;;;;4974478;28;20029;-60
2022/11/13 06:28:40;;;;;;;12.82;7.22;;;5.20;99.90;;;;;;4970663;28;20111;-61
2022/11/13 06:31:11;;;;;;;12.45;6.57;;;5.00;99.90;;;;;;4969127;28;20043;-60
2022/11/13 06:33:38;;;;;;;12.57;7.38;;;4.90;99.90;;;;;;4972377;28;20408;-60
2022/11/13 06:36:06;;;;;;;13.25;7.15;;;4.90;99.90;;;;;;4971371;28;20131;-60
2022/11/13 06:38:33;;;;;;;13.40;7.15;;;4.80;99.90;;;;;;4971501;28;20090;-61
2022/11/13 06:40:59;;;;;;;12.30;7.43;;;4.80;99.90;;;;;;4968971;28;20101;-60
2022/11/13 06:43:25;;;;;;;11.57;6.68;;;4.80;99.90;;;;;;4970521;28;20027;-59
2022/11/13 06:45:52;;;;;;;15.50;7.30;;;4.80;99.90;;;;;;4964826;28;20023;-60
2022/11/13 06:48:17;;;;;;;13.20;6.78;;;4.70;99.90;;;;;;4967833;28;20088;-60
2022/11/13 06:50:43;;;;;;;16.33;6.72;;;4.70;99.90;;;;;;4971257;28;20437;-61
2022/11/13 06:53:08;;;;;;;14.93;7.93;;;4.80;99.90;;;;;;4965356;28;20443;-61
2022/11/13 06:55:34;;;;;;;11.45;6.70;;;4.70;99.90;;;;;;4963644;28;20547;-59
2022/11/13 06:57:59;;;;;;;16.55;8.02;;;4.70;99.90;;;;;;4969597;28;20134;-61
2022/11/13 07:00:25;;;;;;;15.60;7.70;;;4.70;99.90;;;;;;4965268;28;20065;-62
2022/11/13 07:02:50;;;;;;;11.85;7.15;;;4.70;99.90;;;;;;4965905;28;20039;-60
2022/11/13 07:05:16;;;;;;;11.85;7.38;;;4.80;99.90;;;;;;4966463;28;20400;-60
2022/11/13 07:07:42;;;;;;;14.10;7.22;;;4.90;99.90;;;;;;4964461;28;20118;-60
2022/11/13 07:10:07;;;;;;;12.27;5.95;;;5.00;99.90;;;;;;4967192;28;20039;-60
2022/11/13 07:12:33;;;;;;;13.30;6.82;;;5.00;99.90;;;;;;4968170;28;20049;-60
2022/11/13 07:14:58;;;;;;;13.45;6.38;;;5.00;99.90;;;;;;4971469;28;20027;-60
2022/11/13 07:17:24;;;;;;;13.57;6.25;;;5.00;99.90;;;;;;4967382;28;20027;-59
2022/11/13 07:19:49;;;;;;;10.13;5.38;;;4.90;99.90;;;;;;4966557;28;20389;-59
2022/11/13 07:22:15;;;;;;;19.48;6.72;;;4.90;99.90;;;;;;4970421;28;20042;-60
2022/11/13 07:24:41;;;;;;;11.55;6.63;;;4.80;99.90;;;;;;4973899;28;20031;-61
2022/11/13 07:27:07;;;;;;;10.13;5.97;;;4.80;99.90;;;;;;4968540;28;20035;-61
2022/11/13 07:29:34;;;;;;;16.05;6.53;;;4.70;99.90;;;;;;4970479;28;20058;-62
2022/11/13 07:31:59;;;;;;;15.50;6.53;;;4.70;99.90;;;;;;4968240;28;20065;-61
2022/11/13 07:34:25;;;;;;;12.20;7.47;;;4.80;99.90;;;;;;4971310;28;20465;-61
2022/11/13 07:36:50;;;;;;;12.95;6.63;;;4.80;99.90;;;;;;4969893;28;20031;-60
2022/11/13 07:39:16;;;;;;;13.75;7.47;;;4.80;99.90;;;;;;4971345;28;20035;-61
2022/11/13 07:41:41;;;;;;;11.15;7.15;;;4.80;99.90;;;;;;4967465;28;20049;-61
2022/11/13 07:44:07;;;;;;;13.48;6.25;;;4.80;99.90;;;;;;4977099;28;20038;-61
2022/11/13 07:46:32;;;;;;;10.68;6.32;;;4.80;99.90;;;;;;4966666;28;20062;-61
2022/11/13 07:48:58;;;;;;;13.98;6.65;;;4.90;99.90;;;;;;4971020;28;20058;-58
2022/11/13 07:51:23;;;;;;;11.70;6.20;;;5.00;99.90;;;;;;4972188;28;20073;-60
2022/11/13 07:53:49;;;;;;;13.32;6.82;;;5.10;99.90;;;;;;4970650;28;20602;-60
2022/11/13 07:56:14;;;;;;;13.07;7.82;;;5.20;99.90;;;;;;4971230;28;20045;-60
2022/11/13 07:58:40;;;;;;;10.20;6.43;;;5.30;99.90;;;;;;4970712;28;20101;-60
2022/11/13 08:01:06;;;;;;;12.57;6.45;;;5.40;99.90;;;;;;4972375;28;20030;-59
2022/11/13 08:03:31;;;;;;;11.65;5.88;;;5.40;99.90;;;;;;4968650;28;20030;-58
2022/11/13 08:06:03;;;;;;;12.98;6.70;;;5.50;99.90;;;;;;4971308;28;20039;-59
2022/11/13 08:08:30;;;;;;;8.95;6.63;;;5.60;99.90;;;;;;4969469;28;20021;-60
2022/11/13 08:10:55;;;;;;;11.65;6.70;;;5.70;99.90;;;;;;4967364;28;20254;-60
2022/11/13 08:13:21;;;;;;;10.27;6.00;;;5.80;99.90;;;;;;4966405;28;20074;-59
2022/11/13 08:15:46;;;;;;;11.90;6.35;;;5.90;99.90;;;;;;4969631;28;20500;-59
2022/11/13 08:18:12;;;;;;;12.13;6.97;;;5.90;99.90;;;;;;4970564;28;20105;-61
2022/11/13 08:20:38;;;;;;;16.98;7.75;;;6.00;99.90;;;;;;4969256;28;20031;-60
2022/11/13 08:23:04;;;;;;;11.73;6.20;;;6.10;99.90;;;;;;4973875;28;20445;-60
2022/11/13 08:25:31;;;;;;;12.55;6.85;;;6.20;99.90;;;;;;4964839;28;20388;-60
2022/11/13 08:27:57;;;;;;;9.57;5.93;;;6.30;99.90;;;;;;4968998;28;20039;-61
2022/11/13 08:30:25;;;;;;;10.15;6.60;;;6.30;99.90;;;;;;4966351;28;20560;-59
2022/11/13 08:32:51;;;;;;;12.48;6.20;;;6.40;99.90;;;;;;4970306;28;20133;-60
2022/11/13 08:35:17;;;;;;;11.35;5.88;;;6.50;99.90;;;;;;4963942;28;20110;-57
2022/11/13 08:37:43;;;;;;;11.63;6.68;;;6.50;99.90;;;;;;4974155;28;20097;-60
2022/11/13 08:40:09;;;;;;;11.32;6.25;;;6.60;99.90;;;;;;4970538;28;20118;-60
2022/11/13 08:42:35;;;;;;;10.63;6.38;;;6.60;99.90;;;;;;4966284;28;20411;-60
2022/11/13 08:45:00;;;;;;;9.75;5.90;;;6.70;99.90;;;;;;4953122;28;20034;-61
2022/11/13 08:47:27;;;;;;;9.32;5.68;;;6.80;99.90;;;;;;4967982;28;20065;-59
2022/11/13 08:49:53;;;;;;;10.82;6.15;;;6.90;99.90;;;;;;4974468;28;20053;-60
2022/11/13 08:52:19;;;;;;;8.77;5.68;;;7.00;99.90;;;;;;4967120;28;20030;-60
2022/11/13 08:54:45;;;;;;;9.45;5.80;;;7.10;99.90;;;;;;4963450;28;20081;-60
2022/11/13 08:57:10;;;;;;;10.70;5.78;;;7.20;99.90;;;;;;4951786;28;20038;-60
2022/11/13 08:59:36;;;;;;;12.35;6.78;;;7.40;99.90;;;;;;4965230;28;20031;-61
2022/11/13 09:02:01;;;;;;;7.63;5.05;;;7.50;99.90;;;;;;4965501;28;20034;-60
2022/11/13 09:04:27;;;;;;;9.90;5.88;;;7.60;99.90;;;;;;4968771;28;20501;-59
2022/11/13 09:06:53;;;;;;;6.90;4.60;;;7.70;99.90;;;;;;4966108;28;20105;-60
2022/11/13 09:09:19;;;;;;;9.98;5.70;;;7.90;99.90;;;;;;4967325;28;20042;-60
2022/11/13 09:11:45;;;;;;;7.32;4.15;;;8.00;99.90;;;;;;4969421;28;20039;-60
2022/11/13 09:14:10;;;;;;;7.43;4.50;;;8.10;99.90;;;;;;4968770;28;20039;-61
2022/11/13 09:16:36;;;;;;;6.57;3.60;;;8.20;99.90;;;;;;4972739;28;20033;-60
2022/11/13 09:19:02;;;;;;;6.25;3.30;;;8.40;99.90;;;;;;4964797;28;20505;-61
2022/11/13 09:21:28;;;;;;;7.13;3.38;;;8.50;99.90;;;;;;4969098;28;20121;-61
2022/11/13 09:23:53;;;;;;;5.40;3.20;;;8.60;99.90;;;;;;4971378;28;20438;-59
2022/11/13 09:26:19;;;;;;;5.07;2.95;;;8.80;99.90;;;;;;4976838;28;20034;-60
2022/11/13 09:28:44;;;;;;;5.10;2.95;;;8.90;99.90;;;;;;4971913;28;20559;-61
2022/11/13 09:31:10;;;;;;;5.00;3.03;;;9.10;99.90;;;;;;4971202;28;20045;-61
2022/11/13 09:33:36;;;;;;;5.05;2.85;;;9.20;99.90;;;;;;4970583;28;20027;-61
2022/11/13 09:36:02;;;;;;;4.47;2.65;;;9.30;99.90;;;;;;4972540;28;20034;-61
2022/11/13 09:38:30;;;;;;;5.82;3.13;;;9.40;99.90;;;;;;4972067;28;20038;-61
2022/11/13 09:41:23;;;;;;;7.57;2.80;;;9.40;99.90;;;;;;4979230;28;20511;-61
2022/11/13 09:43:52;;;;;;;3.58;2.50;;;9.60;99.90;;;;;;4973617;28;20591;-61
2022/11/13 09:46:37;;;;;;;3.67;2.55;;;9.60;99.90;;;;;;4964626;28;20110;-61
2022/11/13 09:49:12;;;;;;;3.45;2.42;;;9.70;99.90;;;;;;4969598;28;20035;-60
2022/11/13 09:51:38;;;;;;;5.68;2.47;;;9.80;99.90;;;;;;4971040;28;20035;-60
2022/11/13 09:54:12;;;;;;;3.63;2.58;;;9.90;99.90;;;;;;4975978;28;20407;-60
2022/11/13 09:56:55;;;;;;;4.72;2.58;;;10.10;99.90;;;;;;4973109;28;20116;-61
2022/11/13 09:59:39;;;;;;;5.78;2.33;;;10.20;99.90;;;;;;4976423;28;20018;-60
2022/11/13 10:02:11;;;;;;;3.13;1.75;;;10.40;99.90;;;;;;4964388;28;20046;-60
2022/11/13 10:04:45;;;;;;;6.03;2.67;;;10.50;99.90;;;;;;4964601;28;20503;-61
2022/11/13 10:07:34;;;;;;;3.53;1.80;;;10.60;99.90;;;;;;4971234;28;20125;-60
2022/11/13 10:10:12;;;;;;;3.17;1.70;;;10.80;99.90;;;;;;4971108;28;20046;-60
2022/11/13 10:12:38;;;;;;;3.58;2.00;;;11.00;99.90;;;;;;4970306;28;20026;-61
2022/11/13 10:15:04;;;;;;;2.92;2.15;;;11.10;99.90;;;;;;4967041;28;20086;-59
2022/11/13 10:17:39;;;;;;;4.25;2.00;;;11.20;99.90;;;;;;4968071;28;20051;-61
2022/11/13 10:20:18;;;;;;;7.20;1.90;;;11.30;99.90;;;;;;4967139;28;20050;-60
2022/11/13 10:22:54;;;;;;;2.90;1.67;;;11.40;99.90;;;;;;4967728;28;20081;-61
2022/11/13 10:25:27;;;;;;;4.32;1.73;;;11.50;99.90;;;;;;4967333;28;20106;-60
2022/11/13 10:27:54;;;;;;;2.15;1.45;;;11.60;99.90;;;;;;4970196;28;20138;-60
2022/11/13 10:30:20;;;;;;;3.30;2.33;;;11.70;99.90;;;;;;4966309;28;20126;-58
2022/11/13 10:32:46;;;;;;;5.30;1.67;;;11.90;99.90;;;;;;4967338;28;20544;-60
2022/11/13 10:35:27;;;;;;;4.90;2.00;;;12.00;99.90;;;;;;4964831;28;20039;-59
2022/11/13 10:38:03;;;;;;;2.90;1.65;;;12.00;99.90;;;;;;4967287;28;20023;-59
2022/11/13 10:40:35;;;;;;;3.30;2.00;;;12.20;99.90;;;;;;4965935;28;20057;-59
2022/11/13 10:43:17;;;;;;;3.85;1.92;;;12.30;99.90;;;;;;4968327;28;20035;-58
2022/11/13 10:46:01;;;;;;;1.75;1.25;;;12.30;99.90;;;;;;4965098;28;20030;-59
2022/11/13 10:48:30;;;;;;;1.92;1.33;;;12.50;99.90;;;;;;4968052;28;20034;-61
2022/11/13 10:50:57;;;;;;;2.90;1.55;;;12.60;99.90;;;;;;4971692;28;20373;-60
2022/11/13 10:53:25;;;;;;;1.40;1.30;;;12.70;99.90;;;;;;4968227;28;20039;-59
2022/11/13 10:55:55;;;;;;;2.22;1.33;;;12.90;99.90;;;;;;5019707;23;20042;-59
2022/11/13 10:58:20;;;;;;;4.43;1.75;;;13.00;99.90;;;;;;5006177;28;20053;-54
2022/11/13 11:00:48;;;;;;;2.22;1.85;;;13.10;99.90;;;;;;4997706;28;20053;-54
2022/11/13 11:03:23;;;;;;;3.75;1.67;;;13.20;99.90;;;;;;5007024;28;20039;-58
2022/11/13 11:06:03;;;;;;;5.15;1.98;;;13.40;99.90;;;;;;4988427;28;20090;-54
2022/11/13 11:08:34;;;;;;;3.45;1.90;;;13.50;99.90;;;;;;4981375;28;20503;-53
2022/11/13 11:14:24;;;;;;;2.38;1.88;;;13.70;99.90;;;;;;4982309;28;20062;-56
2022/11/13 11:16:51;;;;;;;3.47;1.92;;;13.90;99.90;;;;;;4959535;28;20023;-58
2022/11/13 11:19:21;;;;;;;3.10;1.88;;;14.10;99.90;;;;;;4968171;28;20022;-54
2022/11/13 11:21:52;;;;;;;2.80;1.67;;;14.10;99.90;;;;;;4970892;28;20041;-59
2022/11/13 11:24:28;;;;;;;4.15;2.50;;;14.20;99.90;;;;;;4971456;28;20034;-60
2022/11/13 11:27:15;;;;;;;3.20;2.00;;;14.40;99.90;;;;;;4955846;28;20117;-58
2022/11/13 11:30:04;;;;;;;4.47;2.25;;;14.40;99.90;;;;;;4952298;28;20036;-60
2022/11/13 11:32:59;;;;;;;3.17;2.03;;;14.50;99.90;;;;;;4943839;28;20524;-61
2022/11/13 11:35:39;;;;;;;5.90;2.65;;;14.70;99.90;;;;;;4986867;28;20034;-56
2022/11/13 11:38:14;;;;;;;3.33;2.00;;;14.80;99.90;;;;;;4970405;28;20041;-58
2022/11/13 11:40:43;;;;;;;5.15;1.90;;;15.00;99.90;;;;;;4988541;28;20034;-55
2022/11/13 11:43:14;;;;;;;2.58;1.83;;;15.00;99.90;;;;;;4988582;28;20021;-56
2022/11/13 11:45:43;;;;;;;3.80;2.33;;;15.10;99.90;;;;;;4982620;28;20034;-59
2022/11/13 11:48:16;;;;;;;4.72;1.90;;;15.20;99.90;;;;;;4990787;28;20109;-58
2022/11/13 11:50:56;;;;;;;3.30;2.40;;;15.30;99.90;;;;;;4991843;28;20026;-58
2022/11/13 11:53:30;;;;;;;4.13;2.25;;;15.30;99.90;;;;;;4987129;28;20140;-61
2022/11/13 11:56:18;;;;;;;3.00;2.17;;;15.60;99.90;;;;;;4985498;28;20037;-58
2022/11/13 11:59:01;;;;;;;2.25;1.90;;;15.60;99.90;;;;;;4975768;28;20286;-61
2022/11/13 12:01:27;;;;;;;8.48;2.33;;;15.80;99.90;;;;;;4981409;28;20031;-59
2022/11/13 12:04:14;;;;;;;3.35;2.33;;;15.80;99.90;;;;;;4988177;28;20550;-56
2022/11/13 12:06:48;;;;;;;5.90;2.25;;;15.80;99.90;;;;;;4990472;28;20033;-60
2022/11/13 12:09:20;;;;;;;3.35;2.03;;;15.80;99.90;;;;;;4983123;28;20034;-59
2022/11/13 12:12:10;;;;;;;3.80;2.35;;;16.00;99.90;;;;;;4988891;28;20066;-60
2022/11/13 12:15:01;;;;;;;4.30;2.38;;;16.00;99.90;;;;;;4989935;28;20077;-58
2022/11/13 12:17:46;;;;;;;5.72;2.20;;;16.00;99.90;;;;;;4985975;28;20019;-60
2022/11/13 12:20:26;;;;;;;3.58;2.22;;;16.10;99.90;;;;;;4991998;28;20127;-60
2022/11/13 12:23:37;;;;;;;3.67;2.25;;;16.20;99.90;;;;;;4988907;28;20030;-59
2022/11/13 12:26:21;;;;;;;4.60;2.30;;;16.20;99.90;;;;;;4973547;28;20124;-61
2022/11/13 12:29:14;;;;;;;3.08;1.83;;;16.10;99.90;;;;;;4996562;28;20019;-61
2022/11/13 12:31:48;;;;;;;2.33;1.90;;;16.10;99.90;;;;;;4980321;28;20080;-60
2022/11/13 12:34:29;;;;;;;2.25;1.80;;;16.20;99.90;;;;;;4991293;28;20045;-60
2022/11/13 12:36:55;;;;;;;3.28;1.85;;;16.20;99.90;;;;;;4991427;28;20027;-59
2022/11/13 12:39:36;;;;;;;3.05;1.77;;;16.10;99.90;;;;;;4989804;28;20034;-58
2022/11/13 12:42:18;;;;;;;3.15;2.10;;;16.00;99.90;;;;;;4995604;28;20030;-56
2022/11/13 12:44:59;;;;;;;2.03;1.48;;;16.10;99.90;;;;;;4990149;28;20392;-55
2022/11/13 12:47:25;;;;;;;2.75;2.08;;;16.00;99.90;;;;;;4990257;28;20385;-59
2022/11/13 12:50:23;;;;;;;4.30;1.90;;;16.00;99.90;;;;;;4994223;28;20037;-58
2022/11/13 12:52:58;;;;;;;2.05;1.55;;;16.00;99.90;;;;;;4982336;28;20038;-59
2022/11/13 12:55:27;;;;;;;3.42;1.83;;;16.10;99.90;;;;;;4987170;28;20030;-59
2022/11/13 12:57:53;;;;;;;3.42;1.90;;;16.10;99.90;;;;;;4982505;28;20026;-59
2022/11/13 13:00:26;;;;;;;2.47;1.60;;;16.20;99.90;;;;;;4983908;28;20038;-60
2022/11/13 13:03:15;;;;;;;4.20;2.35;;;16.10;99.90;;;;;;4983824;28;20034;-58
2022/11/13 13:06:14;;;;;;;2.65;1.70;;;15.90;99.90;;;;;;4988905;28;20034;-61